Airfield :







YOU CAN JOIN US ON...

 
LOGIN :

Register | Disclaimer

   EN    FR    IT 

 









Legend :    VFR   Marginal VFR   IFR   Intensive IFR   Very Intensive IFR
Visi :
Ceiling :
>= 8 km
>= 3000ft
5 to 8 km
1000 to 3000 ft
1500m to 5 km
500 to 1000 ft
800 to 1500m
200 to 500 ft
< 800m
< 200 ft
Symbols :   Thunderstorms  Fog  Heavy snow  Heavy precipitations  Wind > 20 kt






- Airport Elevation : 26 ft
- IATA code : CAY


SOCA - Rochambeau

CURRENT METAR :
  • 020330Z AUTO 00000KT 9999 BKN018 OVC025 24/23 Q1009 TEMPO 3000 SHRA SCT008 BKN015TCU

EXPIRED METARs :
  • 020300Z AUTO VRB02KT 9999 FEW007 SCT025 BKN100 24/23 Q1009 TEMPO 3000 SHRA SCT008 BKN015TCU
  • 020230Z AUTO 00000KT 9999 NSC 24/23 Q1009 TEMPO 3000 SHRA SCT008 BKN015TCU
  • 020200Z AUTO VRB02KT 9999 FEW005 BKN078 OVC088 24/23 Q1009 TEMPO 3000 SHRA SCT008 BKN015TCU
  • 020130Z AUTO 10005KT 9999 SCT006 BKN020 BKN044 24/23 Q1010 TEMPO 3000 SHRA SCT008 BKN015TCU
  • 020100Z AUTO 12006KT 060V170 2700 RA BR FEW008/// SCT021/// BKN029/// ///TCU 23/23 Q1010 TEMPO 3000 SHRA
  • 020030Z AUTO 10009KT 070V140 2700 +RA BR BKN010/// BKN015/// BKN025/// ///TCU 24/22 Q1010 TEMPO 3000 SHRA SCT008 BKN015TCU

TAF TAF SOCA
Valid from the 02 at 00:00 until the 03 at 00:00 UTC


012300Z 0200/0224 VRB02KT 9999 SCT020
PROB30
TEMPO 0200/0206 3000 SHRA SCT008 BKN015TCU
PROB40
TEMPO 0206/0221 2000 SHRA SCT008CB BKN012TCU
BECMG 0213/0215 07010KT
BECMG 0221/0223 VRB02KT
SOOO FIR / South America



MET'MAP, your aeronautical weather chart ! - Copyright ORBIFLY December 2007 - Disclaimer

ORBIFLY MET'MAP TEAM :

Programming & Development : Alexandra Zaïnal
Original concept : Baudouin d'Aumeries
Technical & hardware support : Manuel Goepfert
Assistance : Marc-Olivier Méhu




SOURCES & CREDITS :

   NOAA